BAW232 LSZH-EGCC
Flight info
| Callsign | BAW232 |
|---|---|
| Flight time | 1h 35m |
| Altitude | 40000 |
| Route | DEGES Z1 ETAGO DCT LIRSU DCT DENUT L610 LAM UN57 WELIN T420 ELVOS |
| Aircraft | B77L/H-SDE1E2E3FGHIJ2J3J4J5M1RWXY/LB1D1 |
Departure
| Time | 2026-04-26 16:29 |
|---|---|
| Airport | Zürich Airport (LSZH) |
Arrival
| Time | 2026-04-26 18:04 |
|---|---|
| Airport | Manchester Airport (EGCC) |
| Time | Latitude | Longitude | Altitude | Speed | Heading |
|---|---|---|---|---|---|
| 2026-04-26 15:55 | 47.46174 | 8.55492 | 1407 ft | 0 kts | 187° |
| 2026-04-26 16:17 | 47.46181 | 8.55494 | 1408 ft | 4 kts | 188° |
| 2026-04-26 16:17 | 47.46207 | 8.55501 | 1405 ft | 4 kts | 196° |
| 2026-04-26 16:17 | 47.46233 | 8.55515 | 1410 ft | 4 kts | 212° |
| 2026-04-26 16:18 | 47.46250 | 8.55540 | 1411 ft | 4 kts | 257° |
| 2026-04-26 16:18 | 47.46252 | 8.55551 | 1411 ft | 0 kts | 276° |
| 2026-04-26 16:21 | 47.46252 | 8.55540 | 1411 ft | 4 kts | 276° |
| 2026-04-26 16:21 | 47.46257 | 8.55476 | 1410 ft | 9 kts | 276° |
| 2026-04-26 16:22 | 47.46266 | 8.55358 | 1405 ft | 14 kts | 276° |
| 2026-04-26 16:22 | 47.46275 | 8.55216 | 1401 ft | 14 kts | 276° |
| 2026-04-26 16:22 | 47.46288 | 8.55052 | 1401 ft | 16 kts | 276° |
| 2026-04-26 16:22 | 47.46299 | 8.54886 | 1406 ft | 15 kts | 276° |
| 2026-04-26 16:23 | 47.46323 | 8.54750 | 1408 ft | 14 kts | 307° |
| 2026-04-26 16:23 | 47.46405 | 8.54675 | 1407 ft | 14 kts | 334° |
| 2026-04-26 16:23 | 47.46495 | 8.54613 | 1406 ft | 15 kts | 335° |
| 2026-04-26 16:23 | 47.46600 | 8.54541 | 1403 ft | 16 kts | 334° |
| 2026-04-26 16:24 | 47.46707 | 8.54468 | 1407 ft | 17 kts | 336° |
| 2026-04-26 16:24 | 47.46829 | 8.54397 | 1406 ft | 20 kts | 338° |
| 2026-04-26 16:24 | 47.46954 | 8.54310 | 1409 ft | 20 kts | 335° |
| 2026-04-26 16:24 | 47.47083 | 8.54223 | 1413 ft | 21 kts | 335° |
| 2026-04-26 16:25 | 47.47209 | 8.54135 | 1412 ft | 19 kts | 335° |
| 2026-04-26 16:25 | 47.47324 | 8.54056 | 1412 ft | 19 kts | 335° |
| 2026-04-26 16:25 | 47.47440 | 8.53976 | 1409 ft | 19 kts | 335° |
| 2026-04-26 16:25 | 47.47553 | 8.53898 | 1403 ft | 14 kts | 331° |
| 2026-04-26 16:26 | 47.47608 | 8.53798 | 1409 ft | 11 kts | 283° |
| 2026-04-26 16:26 | 47.47609 | 8.53792 | 1409 ft | 0 kts | 278° |
| 2026-04-26 16:27 | 47.47608 | 8.53779 | 1412 ft | 5 kts | 268° |
| 2026-04-26 16:27 | 47.47571 | 8.53636 | 1406 ft | 12 kts | 237° |
| 2026-04-26 16:27 | 47.47514 | 8.53631 | 1412 ft | 0 kts | 154° |
| 2026-04-26 16:28 | 47.47507 | 8.53637 | 1412 ft | 8 kts | 154° |
| 2026-04-26 16:28 | 47.47399 | 8.53712 | 1406 ft | 51 kts | 155° |
| 2026-04-26 16:28 | 47.46780 | 8.54141 | 1408 ft | 145 kts | 155° |
| 2026-04-26 16:28 | 47.45694 | 8.54865 | 1862 ft | 183 kts | 153° |
| 2026-04-26 16:29 | 47.44464 | 8.55702 | 2656 ft | 206 kts | 152° |
| 2026-04-26 16:29 | 47.43102 | 8.56609 | 3438 ft | 217 kts | 148° |
| 2026-04-26 16:29 | 47.41999 | 8.58201 | 3832 ft | 236 kts | 110° |
| 2026-04-26 16:29 | 47.41860 | 8.60645 | 4388 ft | 248 kts | 72° |
| 2026-04-26 16:30 | 47.42821 | 8.62772 | 5225 ft | 254 kts | 38° |
| 2026-04-26 16:30 | 47.44225 | 8.64386 | 5963 ft | 263 kts | 43° |
| 2026-04-26 16:30 | 47.45529 | 8.66312 | 6814 ft | 268 kts | 50° |
| 2026-04-26 16:30 | 47.46318 | 8.68832 | 7461 ft | 280 kts | 80° |
| 2026-04-26 16:31 | 47.46442 | 8.71747 | 8309 ft | 285 kts | 89° |
| 2026-04-26 16:31 | 47.46492 | 8.74671 | 9158 ft | 292 kts | 89° |
| 2026-04-26 16:31 | 47.46553 | 8.77721 | 10067 ft | 298 kts | 88° |
| 2026-04-26 16:31 | 47.46657 | 8.80818 | 10847 ft | 306 kts | 87° |
| 2026-04-26 16:32 | 47.46612 | 8.84069 | 11148 ft | 331 kts | 100° |
| 2026-04-26 16:32 | 47.46062 | 8.87512 | 11343 ft | 360 kts | 105° |
| 2026-04-26 16:32 | 47.45440 | 8.91193 | 11663 ft | 384 kts | 104° |
| 2026-04-26 16:32 | 47.44880 | 8.94921 | 12496 ft | 393 kts | 103° |
| 2026-04-26 16:33 | 47.44292 | 8.99060 | 13545 ft | 399 kts | 102° |
| 2026-04-26 16:33 | 47.43721 | 9.03109 | 14432 ft | 405 kts | 102° |
| 2026-04-26 16:33 | 47.43142 | 9.07230 | 15360 ft | 410 kts | 102° |
| 2026-04-26 16:33 | 47.42556 | 9.11384 | 16200 ft | 416 kts | 102° |
| 2026-04-26 16:34 | 47.41960 | 9.15602 | 17034 ft | 420 kts | 100° |
| 2026-04-26 16:34 | 47.41807 | 9.19914 | 17603 ft | 426 kts | 81° |
| 2026-04-26 16:34 | 47.42678 | 9.24089 | 18347 ft | 429 kts | 60° |
| 2026-04-26 16:34 | 47.44197 | 9.27875 | 19059 ft | 431 kts | 56° |
| 2026-04-26 16:35 | 47.45760 | 9.31733 | 19733 ft | 438 kts | 57° |
| 2026-04-26 16:35 | 47.47310 | 9.35637 | 20430 ft | 439 kts | 55° |
| 2026-04-26 16:35 | 47.49270 | 9.39112 | 20986 ft | 443 kts | 39° |
| 2026-04-26 16:35 | 47.51807 | 9.41693 | 21686 ft | 443 kts | 24° |
| 2026-04-26 16:36 | 47.54661 | 9.43314 | 22404 ft | 440 kts | 13° |
| 2026-04-26 16:36 | 47.57635 | 9.44454 | 22975 ft | 445 kts | 8° |
| 2026-04-26 16:36 | 47.60713 | 9.45192 | 23631 ft | 449 kts | 4° |
| 2026-04-26 16:36 | 47.63827 | 9.45498 | 24248 ft | 451 kts | 359° |
| 2026-04-26 16:37 | 47.66984 | 9.45635 | 24881 ft | 454 kts | 358° |
| 2026-04-26 16:37 | 47.70112 | 9.45767 | 25475 ft | 457 kts | 358° |
| 2026-04-26 16:37 | 47.73309 | 9.45921 | 26044 ft | 462 kts | 359° |
| 2026-04-26 16:37 | 47.76547 | 9.46097 | 26603 ft | 466 kts | 359° |
| 2026-04-26 16:38 | 47.79803 | 9.46283 | 27150 ft | 470 kts | 359° |
| 2026-04-26 16:38 | 47.83080 | 9.46408 | 27696 ft | 473 kts | 357° |
| 2026-04-26 16:38 | 47.86394 | 9.46406 | 28263 ft | 477 kts | 356° |
| 2026-04-26 16:38 | 47.89731 | 9.46354 | 28789 ft | 480 kts | 356° |
| 2026-04-26 16:39 | 47.93086 | 9.46299 | 29297 ft | 484 kts | 356° |
| 2026-04-26 16:39 | 47.96463 | 9.46260 | 29748 ft | 488 kts | 356° |
| 2026-04-26 16:39 | 47.99871 | 9.46238 | 30202 ft | 491 kts | 357° |
| 2026-04-26 16:39 | 48.03300 | 9.46228 | 30690 ft | 491 kts | 357° |
| 2026-04-26 16:40 | 48.06704 | 9.46224 | 31289 ft | 488 kts | 357° |
| 2026-04-26 16:40 | 48.10054 | 9.46219 | 31898 ft | 485 kts | 357° |
| 2026-04-26 16:40 | 48.13432 | 9.46211 | 32502 ft | 483 kts | 357° |
| 2026-04-26 16:40 | 48.16780 | 9.46202 | 33053 ft | 481 kts | 357° |
| 2026-04-26 16:41 | 48.20130 | 9.46196 | 33580 ft | 480 kts | 357° |
| 2026-04-26 16:41 | 48.23457 | 9.46196 | 34101 ft | 478 kts | 357° |
| 2026-04-26 16:41 | 48.26768 | 9.46199 | 34582 ft | 476 kts | 357° |
| 2026-04-26 16:41 | 48.30063 | 9.46202 | 35182 ft | 470 kts | 357° |
| 2026-04-26 16:42 | 48.33337 | 9.46202 | 35610 ft | 469 kts | 357° |
| 2026-04-26 16:42 | 48.36616 | 9.46201 | 35927 ft | 470 kts | 357° |
| 2026-04-26 16:42 | 48.39882 | 9.46200 | 36241 ft | 471 kts | 357° |
| 2026-04-26 16:42 | 48.43173 | 9.46199 | 36607 ft | 470 kts | 357° |
| 2026-04-26 16:43 | 48.46402 | 9.46200 | 36989 ft | 469 kts | 357° |
| 2026-04-26 16:43 | 48.49671 | 9.46201 | 37355 ft | 468 kts | 357° |
| 2026-04-26 16:43 | 48.52930 | 9.46200 | 37702 ft | 468 kts | 357° |
| 2026-04-26 16:43 | 48.56187 | 9.46182 | 38038 ft | 467 kts | 357° |
| 2026-04-26 16:44 | 48.59443 | 9.46144 | 38389 ft | 467 kts | 357° |
| 2026-04-26 16:44 | 48.62696 | 9.46104 | 38710 ft | 466 kts | 357° |
| 2026-04-26 16:44 | 48.65948 | 9.46068 | 38991 ft | 466 kts | 357° |
| 2026-04-26 16:44 | 48.69172 | 9.45858 | 39147 ft | 462 kts | 347° |
| 2026-04-26 16:45 | 48.72196 | 9.44408 | 39241 ft | 458 kts | 330° |
| 2026-04-26 16:45 | 48.74858 | 9.41758 | 39459 ft | 454 kts | 317° |
| 2026-04-26 16:45 | 48.76959 | 9.38322 | 39776 ft | 447 kts | 307° |
| 2026-04-26 16:45 | 48.78835 | 9.34594 | 40208 ft | 443 kts | 306° |
| 2026-04-26 16:46 | 48.82580 | 9.27042 | 40217 ft | 445 kts | 306° |
| 2026-04-26 16:46 | 48.86277 | 9.19646 | 40197 ft | 440 kts | 307° |
| 2026-04-26 16:47 | 48.89987 | 9.12294 | 40201 ft | 437 kts | 307° |
| 2026-04-26 16:47 | 48.93685 | 9.04983 | 40202 ft | 435 kts | 307° |
| 2026-04-26 16:48 | 48.97366 | 8.97692 | 40213 ft | 435 kts | 307° |
| 2026-04-26 16:48 | 49.01047 | 8.90379 | 40203 ft | 436 kts | 307° |
| 2026-04-26 16:49 | 49.04740 | 8.83019 | 40210 ft | 437 kts | 307° |
| 2026-04-26 16:49 | 49.08438 | 8.75629 | 40206 ft | 438 kts | 307° |
| 2026-04-26 16:50 | 49.12118 | 8.68256 | 40208 ft | 440 kts | 307° |
| 2026-04-26 16:50 | 49.15828 | 8.60803 | 40210 ft | 441 kts | 307° |
| 2026-04-26 16:51 | 49.19543 | 8.53315 | 40206 ft | 442 kts | 307° |
| 2026-04-26 16:51 | 49.23257 | 8.45811 | 40219 ft | 443 kts | 307° |
| 2026-04-26 16:52 | 49.26345 | 8.39556 | 40198 ft | 443 kts | 307° |
| 2026-04-26 16:52 | 49.30658 | 8.30794 | 40195 ft | 442 kts | 307° |
| 2026-04-26 16:53 | 49.34380 | 8.23209 | 40200 ft | 442 kts | 307° |
| 2026-04-26 16:53 | 49.38068 | 8.15671 | 40221 ft | 441 kts | 306° |
| 2026-04-26 16:54 | 49.41721 | 8.08185 | 40218 ft | 440 kts | 307° |
| 2026-04-26 16:54 | 49.45387 | 8.00651 | 40208 ft | 440 kts | 307° |
| 2026-04-26 16:55 | 49.49038 | 7.93126 | 40220 ft | 439 kts | 306° |
| 2026-04-26 16:55 | 49.52685 | 7.85589 | 40216 ft | 438 kts | 306° |
| 2026-04-26 16:56 | 49.58143 | 7.74268 | 40196 ft | 438 kts | 306° |
| 2026-04-26 16:57 | 49.61779 | 7.66699 | 40219 ft | 442 kts | 306° |
| 2026-04-26 16:57 | 49.67321 | 7.55123 | 40218 ft | 453 kts | 306° |
| 2026-04-26 16:58 | 49.70451 | 7.48560 | 40225 ft | 458 kts | 306° |
| 2026-04-26 16:59 | 49.76814 | 7.35173 | 40223 ft | 467 kts | 306° |
| 2026-04-26 17:00 | 49.84519 | 7.18869 | 40224 ft | 473 kts | 306° |
| 2026-04-26 17:00 | 49.90330 | 7.06503 | 40209 ft | 474 kts | 306° |
| 2026-04-26 17:01 | 49.94203 | 6.98234 | 40233 ft | 473 kts | 306° |
| 2026-04-26 17:01 | 49.98055 | 6.89982 | 40192 ft | 472 kts | 306° |
| 2026-04-26 17:02 | 50.01894 | 6.81730 | 40216 ft | 470 kts | 306° |
| 2026-04-26 17:02 | 50.05720 | 6.73482 | 40215 ft | 468 kts | 306° |
| 2026-04-26 17:03 | 50.09520 | 6.65263 | 40195 ft | 466 kts | 306° |
| 2026-04-26 17:03 | 50.13298 | 6.57066 | 40205 ft | 465 kts | 306° |
| 2026-04-26 17:04 | 50.17064 | 6.48874 | 40195 ft | 464 kts | 306° |
| 2026-04-26 17:04 | 50.20659 | 6.40516 | 40201 ft | 463 kts | 303° |
| 2026-04-26 17:05 | 50.24011 | 6.31982 | 40201 ft | 463 kts | 302° |
| 2026-04-26 17:05 | 50.27358 | 6.23384 | 40222 ft | 463 kts | 302° |
| 2026-04-26 17:06 | 50.30719 | 6.14772 | 40214 ft | 463 kts | 302° |
| 2026-04-26 17:06 | 50.34083 | 6.06157 | 40225 ft | 464 kts | 302° |
| 2026-04-26 17:07 | 50.37449 | 5.97515 | 40221 ft | 464 kts | 302° |
| 2026-04-26 17:07 | 50.40804 | 5.88873 | 40229 ft | 464 kts | 302° |
| 2026-04-26 17:08 | 50.44131 | 5.80273 | 40234 ft | 464 kts | 302° |
| 2026-04-26 17:08 | 50.47478 | 5.71592 | 40251 ft | 465 kts | 302° |
| 2026-04-26 17:09 | 50.49714 | 5.65776 | 40241 ft | 465 kts | 302° |
| 2026-04-26 17:09 | 50.53610 | 5.55609 | 40243 ft | 465 kts | 301° |
| 2026-04-26 17:10 | 50.56920 | 5.46943 | 40249 ft | 465 kts | 301° |
| 2026-04-26 17:10 | 50.60245 | 5.38207 | 40253 ft | 465 kts | 301° |
| 2026-04-26 17:11 | 50.63566 | 5.29450 | 40269 ft | 465 kts | 301° |
| 2026-04-26 17:11 | 50.66876 | 5.20694 | 40264 ft | 465 kts | 301° |
| 2026-04-26 17:12 | 50.71814 | 5.07579 | 40256 ft | 465 kts | 301° |
| 2026-04-26 17:13 | 50.76758 | 4.94376 | 40266 ft | 465 kts | 301° |
| 2026-04-26 17:14 | 50.81693 | 4.81131 | 40274 ft | 466 kts | 301° |
| 2026-04-26 17:14 | 50.86590 | 4.67920 | 40268 ft | 467 kts | 300° |
| 2026-04-26 17:15 | 50.91507 | 4.54588 | 40267 ft | 468 kts | 300° |
| 2026-04-26 17:16 | 50.94777 | 4.45681 | 40266 ft | 468 kts | 300° |
| 2026-04-26 17:16 | 50.98055 | 4.36723 | 40269 ft | 468 kts | 300° |
| 2026-04-26 17:17 | 51.01321 | 4.27763 | 40266 ft | 469 kts | 300° |
| 2026-04-26 17:17 | 51.04578 | 4.18799 | 40271 ft | 469 kts | 300° |
| 2026-04-26 17:18 | 51.07836 | 4.09802 | 40266 ft | 469 kts | 300° |
| 2026-04-26 17:18 | 51.11064 | 4.00853 | 40265 ft | 469 kts | 300° |
| 2026-04-26 17:19 | 51.15922 | 3.87328 | 40268 ft | 469 kts | 300° |
| 2026-04-26 17:19 | 51.19149 | 3.78305 | 40266 ft | 469 kts | 299° |
| 2026-04-26 17:20 | 51.21795 | 3.70762 | 40270 ft | 468 kts | 296° |
| 2026-04-26 17:20 | 51.24482 | 3.59389 | 40285 ft | 469 kts | 285° |
| 2026-04-26 17:21 | 51.25811 | 3.49201 | 40286 ft | 469 kts | 282° |
| 2026-04-26 17:21 | 51.27120 | 3.38972 | 40291 ft | 470 kts | 282° |
| 2026-04-26 17:22 | 51.28453 | 3.28760 | 40288 ft | 470 kts | 282° |
| 2026-04-26 17:22 | 51.29779 | 3.18530 | 40299 ft | 470 kts | 282° |
| 2026-04-26 17:23 | 51.31086 | 3.08348 | 40296 ft | 471 kts | 282° |
| 2026-04-26 17:23 | 51.32393 | 2.98092 | 40295 ft | 471 kts | 282° |
| 2026-04-26 17:24 | 51.33694 | 2.87806 | 40304 ft | 471 kts | 282° |
| 2026-04-26 17:24 | 51.34976 | 2.77605 | 40306 ft | 471 kts | 282° |
| 2026-04-26 17:25 | 51.36250 | 2.67324 | 40305 ft | 471 kts | 282° |
| 2026-04-26 17:25 | 51.37502 | 2.57043 | 40304 ft | 471 kts | 282° |
| 2026-04-26 17:26 | 51.38750 | 2.46741 | 40302 ft | 471 kts | 281° |
| 2026-04-26 17:26 | 51.39990 | 2.36439 | 40299 ft | 471 kts | 281° |
| 2026-04-26 17:27 | 51.41223 | 2.26119 | 40305 ft | 471 kts | 281° |
| 2026-04-26 17:27 | 51.42438 | 2.15864 | 40304 ft | 471 kts | 281° |
| 2026-04-26 17:28 | 51.43652 | 2.05549 | 40299 ft | 471 kts | 281° |
| 2026-04-26 17:28 | 51.44887 | 1.95228 | 40301 ft | 471 kts | 282° |
| 2026-04-26 17:29 | 51.45987 | 1.86667 | 40296 ft | 471 kts | 282° |
| 2026-04-26 17:29 | 51.47390 | 1.74589 | 40304 ft | 471 kts | 280° |
| 2026-04-26 17:30 | 51.48545 | 1.64317 | 40299 ft | 471 kts | 281° |
| 2026-04-26 17:30 | 51.49718 | 1.53976 | 40299 ft | 471 kts | 281° |
| 2026-04-26 17:31 | 51.50885 | 1.43617 | 40297 ft | 471 kts | 280° |
| 2026-04-26 17:31 | 51.52043 | 1.33249 | 40305 ft | 471 kts | 280° |
| 2026-04-26 17:32 | 51.53192 | 1.22881 | 40304 ft | 472 kts | 280° |
| 2026-04-26 17:32 | 51.54333 | 1.12496 | 40305 ft | 472 kts | 280° |
| 2026-04-26 17:33 | 51.55468 | 1.02119 | 40302 ft | 472 kts | 280° |
| 2026-04-26 17:34 | 51.57156 | 0.86494 | 40326 ft | 472 kts | 279° |
| 2026-04-26 17:34 | 51.58252 | 0.76176 | 40322 ft | 472 kts | 279° |
| 2026-04-26 17:35 | 51.59355 | 0.65745 | 40318 ft | 472 kts | 279° |
| 2026-04-26 17:35 | 51.60533 | 0.55323 | 40323 ft | 472 kts | 280° |
| 2026-04-26 17:36 | 51.61623 | 0.44890 | 40312 ft | 472 kts | 279° |
| 2026-04-26 17:36 | 51.62660 | 0.34456 | 40295 ft | 472 kts | 279° |
| 2026-04-26 17:37 | 51.63710 | 0.24112 | 40293 ft | 472 kts | 280° |
| 2026-04-26 17:37 | 51.64580 | 0.19008 | 40282 ft | 472 kts | 291° |
| 2026-04-26 17:37 | 51.66000 | 0.14243 | 40297 ft | 473 kts | 299° |
| 2026-04-26 17:38 | 51.70041 | 0.05864 | 40292 ft | 476 kts | 313° |
| 2026-04-26 17:38 | 51.72380 | 0.02080 | 40298 ft | 477 kts | 313° |
| 2026-04-26 17:38 | 51.77101 | -0.05473 | 40288 ft | 477 kts | 313° |
| 2026-04-26 17:39 | 51.81783 | -0.13101 | 40307 ft | 478 kts | 312° |
| 2026-04-26 17:39 | 51.86425 | -0.20784 | 40298 ft | 479 kts | 312° |
| 2026-04-26 17:40 | 51.89545 | -0.25976 | 40294 ft | 479 kts | 312° |
| 2026-04-26 17:40 | 51.95725 | -0.36290 | 40292 ft | 479 kts | 312° |
| 2026-04-26 17:41 | 52.00364 | -0.44054 | 40290 ft | 479 kts | 312° |
| 2026-04-26 17:41 | 52.04927 | -0.51710 | 39622 ft | 462 kts | 311° |
| 2026-04-26 17:42 | 52.07155 | -0.55458 | 39096 ft | 458 kts | 311° |
| 2026-04-26 17:42 | 52.09367 | -0.59188 | 38381 ft | 457 kts | 311° |
| 2026-04-26 17:42 | 52.11572 | -0.62913 | 37642 ft | 455 kts | 311° |
| 2026-04-26 17:42 | 52.13727 | -0.66555 | 36870 ft | 439 kts | 311° |
| 2026-04-26 17:43 | 52.15827 | -0.70108 | 35745 ft | 430 kts | 311° |
| 2026-04-26 17:43 | 52.17897 | -0.73620 | 34625 ft | 433 kts | 311° |
| 2026-04-26 17:43 | 52.19954 | -0.77114 | 33750 ft | 420 kts | 311° |
| 2026-04-26 17:43 | 52.21959 | -0.80519 | 32636 ft | 411 kts | 311° |
| 2026-04-26 17:44 | 52.23966 | -0.83711 | 31441 ft | 409 kts | 316° |
| 2026-04-26 17:44 | 52.26254 | -0.86697 | 30571 ft | 419 kts | 321° |
| 2026-04-26 17:44 | 52.28690 | -0.89267 | 30132 ft | 417 kts | 326° |
| 2026-04-26 17:44 | 52.31096 | -0.91621 | 29433 ft | 399 kts | 326° |
| 2026-04-26 17:45 | 52.33474 | -0.93943 | 28396 ft | 401 kts | 326° |
| 2026-04-26 17:45 | 52.35875 | -0.96307 | 27755 ft | 402 kts | 326° |
| 2026-04-26 17:45 | 52.38287 | -0.98695 | 27378 ft | 397 kts | 326° |
| 2026-04-26 17:45 | 52.40593 | -1.00989 | 27059 ft | 390 kts | 325° |
| 2026-04-26 17:46 | 52.42905 | -1.03295 | 26643 ft | 387 kts | 325° |
| 2026-04-26 17:46 | 52.45194 | -1.05584 | 26170 ft | 385 kts | 325° |
| 2026-04-26 17:46 | 52.47499 | -1.07894 | 25312 ft | 395 kts | 325° |
| 2026-04-26 17:46 | 52.49873 | -1.10281 | 24608 ft | 404 kts | 325° |
| 2026-04-26 17:47 | 52.52286 | -1.12728 | 24003 ft | 416 kts | 325° |
| 2026-04-26 17:47 | 52.53130 | -1.13585 | 23795 ft | 421 kts | 325° |
| 2026-04-26 17:47 | 52.57343 | -1.17865 | 22636 ft | 430 kts | 326° |
| 2026-04-26 17:47 | 52.59884 | -1.20434 | 21989 ft | 426 kts | 326° |
| 2026-04-26 17:48 | 52.62408 | -1.22986 | 21376 ft | 423 kts | 326° |
| 2026-04-26 17:48 | 52.64907 | -1.25518 | 20787 ft | 419 kts | 326° |
| 2026-04-26 17:48 | 52.67376 | -1.28025 | 20214 ft | 416 kts | 326° |
| 2026-04-26 17:48 | 52.69801 | -1.30492 | 19644 ft | 413 kts | 326° |
| 2026-04-26 17:49 | 52.72243 | -1.32977 | 19076 ft | 410 kts | 326° |
| 2026-04-26 17:49 | 52.74701 | -1.35478 | 18518 ft | 408 kts | 326° |
| 2026-04-26 17:49 | 52.77110 | -1.37931 | 17858 ft | 407 kts | 326° |
| 2026-04-26 17:49 | 52.79485 | -1.40353 | 17254 ft | 404 kts | 326° |
| 2026-04-26 17:50 | 52.81850 | -1.42767 | 16675 ft | 401 kts | 326° |
| 2026-04-26 17:50 | 52.84225 | -1.45197 | 16080 ft | 398 kts | 326° |
| 2026-04-26 17:50 | 52.86604 | -1.47633 | 15528 ft | 395 kts | 326° |
| 2026-04-26 17:50 | 52.88895 | -1.49983 | 14959 ft | 392 kts | 326° |
| 2026-04-26 17:51 | 52.91198 | -1.52348 | 14417 ft | 388 kts | 327° |
| 2026-04-26 17:51 | 52.93489 | -1.54704 | 13836 ft | 386 kts | 327° |
| 2026-04-26 17:51 | 52.95766 | -1.57048 | 13209 ft | 383 kts | 327° |
| 2026-04-26 17:51 | 52.98006 | -1.59357 | 12655 ft | 379 kts | 327° |
| 2026-04-26 17:52 | 53.00243 | -1.61665 | 12094 ft | 375 kts | 327° |
| 2026-04-26 17:52 | 53.02448 | -1.63942 | 11550 ft | 371 kts | 327° |
| 2026-04-26 17:52 | 53.04627 | -1.66201 | 11132 ft | 363 kts | 326° |
| 2026-04-26 17:52 | 53.06503 | -1.68743 | 10980 ft | 339 kts | 310° |
| 2026-04-26 17:53 | 53.07924 | -1.71716 | 10838 ft | 317 kts | 307° |
| 2026-04-26 17:53 | 53.08809 | -1.73534 | 10749 ft | 296 kts | 308° |
| 2026-04-26 17:53 | 53.10115 | -1.76109 | 10644 ft | 284 kts | 309° |
| 2026-04-26 17:54 | 53.12620 | -1.80980 | 10422 ft | 268 kts | 309° |
| 2026-04-26 17:54 | 53.13820 | -1.83314 | 10313 ft | 271 kts | 309° |
| 2026-04-26 17:54 | 53.15061 | -1.85731 | 10087 ft | 279 kts | 309° |
| 2026-04-26 17:54 | 53.16316 | -1.88174 | 9973 ft | 273 kts | 308° |
| 2026-04-26 17:55 | 53.17537 | -1.90554 | 9564 ft | 268 kts | 309° |
| 2026-04-26 17:55 | 53.18760 | -1.92939 | 9218 ft | 270 kts | 309° |
| 2026-04-26 17:55 | 53.19980 | -1.95320 | 8944 ft | 268 kts | 309° |
| 2026-04-26 17:55 | 53.21194 | -1.97689 | 8668 ft | 267 kts | 309° |
| 2026-04-26 17:56 | 53.22389 | -2.00026 | 8473 ft | 263 kts | 309° |
| 2026-04-26 17:56 | 53.25468 | -2.02754 | 7964 ft | 265 kts | 358° |
| 2026-04-26 17:57 | 53.29137 | -2.02321 | 7319 ft | 262 kts | 2° |
| 2026-04-26 17:57 | 53.30936 | -2.02089 | 6988 ft | 257 kts | 2° |
| 2026-04-26 17:57 | 53.32703 | -2.01860 | 6458 ft | 250 kts | 2° |
| 2026-04-26 17:57 | 53.34439 | -2.01638 | 6102 ft | 251 kts | 2° |
| 2026-04-26 17:58 | 53.39591 | -2.01001 | 5131 ft | 241 kts | 1° |
| 2026-04-26 17:59 | 53.42852 | -2.00602 | 4533 ft | 232 kts | 2° |
| 2026-04-26 17:59 | 53.44447 | -2.00414 | 4223 ft | 225 kts | 358° |
| 2026-04-26 17:59 | 53.45848 | -2.01074 | 3950 ft | 200 kts | 317° |
| 2026-04-26 17:59 | 53.46465 | -2.02942 | 3745 ft | 177 kts | 273° |
| 2026-04-26 18:00 | 53.46158 | -2.04826 | 3532 ft | 172 kts | 237° |
| 2026-04-26 18:00 | 53.45482 | -2.06495 | 3231 ft | 174 kts | 234° |
| 2026-04-26 18:00 | 53.44765 | -2.08103 | 2974 ft | 170 kts | 232° |
| 2026-04-26 18:00 | 53.44036 | -2.09636 | 2749 ft | 165 kts | 231° |
| 2026-04-26 18:01 | 53.43313 | -2.11133 | 2527 ft | 168 kts | 230° |
| 2026-04-26 18:01 | 53.42570 | -2.12670 | 2304 ft | 170 kts | 230° |
| 2026-04-26 18:01 | 53.41833 | -2.14190 | 2081 ft | 165 kts | 230° |
| 2026-04-26 18:01 | 53.41144 | -2.15613 | 1835 ft | 150 kts | 230° |
| 2026-04-26 18:02 | 53.40529 | -2.16883 | 1651 ft | 132 kts | 230° |
| 2026-04-26 18:02 | 53.40140 | -2.17688 | 1556 ft | 134 kts | 230° |
| 2026-04-26 18:02 | 53.39324 | -2.19309 | 1306 ft | 134 kts | 229° |
| 2026-04-26 18:02 | 53.38739 | -2.20527 | 1107 ft | 136 kts | 231° |
| 2026-04-26 18:03 | 53.38159 | -2.21748 | 960 ft | 133 kts | 229° |
| 2026-04-26 18:03 | 53.37574 | -2.22972 | 770 ft | 136 kts | 230° |
| 2026-04-26 18:03 | 53.36971 | -2.24180 | 582 ft | 133 kts | 230° |
| 2026-04-26 18:03 | 53.36387 | -2.25408 | 380 ft | 136 kts | 230° |
| 2026-04-26 18:04 | 53.35784 | -2.26650 | 281 ft | 130 kts | 230° |
| 2026-04-26 18:04 | 53.35283 | -2.27681 | 244 ft | 95 kts | 231° |
| 2026-04-26 18:04 | 53.35045 | -2.28191 | 237 ft | 39 kts | 235° |
| 2026-04-26 18:05 | 53.34946 | -2.28616 | 236 ft | 12 kts | 261° |
| 2026-04-26 18:05 | 53.34946 | -2.28679 | 235 ft | 0 kts | 283° |
| 2026-04-26 18:06 | 53.34949 | -2.28687 | 235 ft | 4 kts | 292° |
| 2026-04-26 18:06 | 53.35003 | -2.28729 | 236 ft | 14 kts | 19° |
| 2026-04-26 18:06 | 53.35073 | -2.28627 | 236 ft | 10 kts | 50° |
| 2026-04-26 18:07 | 53.35130 | -2.28510 | 233 ft | 16 kts | 51° |
| 2026-04-26 18:07 | 53.35210 | -2.28346 | 241 ft | 19 kts | 50° |
| 2026-04-26 18:07 | 53.35304 | -2.28168 | 238 ft | 20 kts | 46° |
| 2026-04-26 18:07 | 53.35361 | -2.28075 | 241 ft | 18 kts | 44° |
| 2026-04-26 18:08 | 53.35494 | -2.27920 | 244 ft | 15 kts | 12° |
| 2026-04-26 18:08 | 53.35618 | -2.27896 | 245 ft | 19 kts | 6° |
| 2026-04-26 18:08 | 53.35725 | -2.27878 | 250 ft | 14 kts | 5° |
| 2026-04-26 18:08 | 53.35754 | -2.27873 | 252 ft | 0 kts | 6° |
| 2026-04-26 18:09 | 53.35755 | -2.27873 | 252 ft | 0 kts | 6° |
| 2026-04-26 18:10 | 53.35816 | -2.27862 | 255 ft | 16 kts | 6° |
| 2026-04-26 18:10 | 53.35932 | -2.27855 | 260 ft | 16 kts | 349° |
| 2026-04-26 18:10 | 53.36034 | -2.27965 | 259 ft | 19 kts | 320° |
| 2026-04-26 18:10 | 53.36134 | -2.28114 | 260 ft | 19 kts | 316° |
| 2026-04-26 18:11 | 53.36227 | -2.28273 | 259 ft | 20 kts | 315° |
| 2026-04-26 18:11 | 53.36308 | -2.28407 | 259 ft | 0 kts | 315° |
| 2026-04-26 18:11 | 53.36308 | -2.28408 | 259 ft | 0 kts | 314° |
| 2026-04-26 18:11 | 53.36310 | -2.28412 | 259 ft | 2 kts | 314° |
| 2026-04-26 18:12 | 53.36339 | -2.28452 | 259 ft | 8 kts | 328° |
| 2026-04-26 18:12 | 53.36410 | -2.28493 | 259 ft | 13 kts | 334° |
| 2026-04-26 18:12 | 53.36493 | -2.28611 | 259 ft | 18 kts | 315° |
| 2026-04-26 18:12 | 53.36584 | -2.28761 | 259 ft | 16 kts | 322° |
| 2026-04-26 18:13 | 53.36654 | -2.28734 | 259 ft | 13 kts | 38° |
| 2026-04-26 18:13 | 53.36732 | -2.28613 | 259 ft | 16 kts | 44° |
| 2026-04-26 18:13 | 53.36792 | -2.28509 | 259 ft | 7 kts | 56° |
| 2026-04-26 18:13 | 53.36790 | -2.28488 | 259 ft | 4 kts | 107° |
| 2026-04-26 18:14 | 53.36749 | -2.28399 | 259 ft | 0 kts | 134° |
| 2026-04-26 18:14 | 53.36739 | -2.28380 | 259 ft | 0 kts | 131° |